Pagrindinis puslapis
METAR-TAF:

METAR-TAF

Oro uostai :

Kiruna, Švedija

platuma: 67-49N, ilguma: 020-20E, Aukštis: 452 m

Dabartinis oras

Ataskaita buvo paskelbta 1 valandą ir 20 minutes, ne 12:50 UTC
Vėjas 9 kt iš Pietvakarių
Temperatūra 21°C
Drėgmė 33%
Slėgis 1024 hPa
Matomumas 10 km arba daugiau

METAR: ESNQ 011250Z AUTO 22009KT 9999 NCD 21/04 Q1024

Laikas: 16:10 (14:10 UTC)

Prognozė

Ataskaita buvo paskelbta 2 valandos ir 40 minutes, ne 11:30 UTC
Prognozė galioja nuo 01 metu 12 UTC su 01 metu 14 UTC
Vėjas 8 kt iš Pietų/Pietvakarių
Matomumas 10 km arba daugiau
nėra debesų žemiau 1500 m ir nėra kamuolinių lietaus debesų

TAF: ESNQ 011130Z 0112/0114 21008KT CAVOK

Orai ataskaitas ir orų prognozės (METAR, TAF).

turimą stotys yra geltonos ir raudonos taškus žemėlapyje.

Perkelti pele per norėdami pamatyti stoties vardą.

Tada spustelėkite, norėdami matyti oro stebėjimo ir prognozės.

Norėdami pakeisti žemėlapį: spustelėkite ant žalios mygtukų su juodo kryžiaus žemyn,; žalią mygtuką su brūkšneliu, jei norite nutolinti; arba žalių rodyklių gretimoms žemėlapius.


METAR-TAF: